sensor_id;sensor_type;location;lat;lon;timestamp;pressure;altitude;pressure_sealevel;temperature;humidity
33286;BME280;19656;50.096;20.014;2022-11-20T00:00:27;98795.30;;;-0.77;63.75
33286;BME280;19656;50.096;20.014;2022-11-20T00:05:49;98800.23;;;-0.80;63.68
33286;BME280;19656;50.096;20.014;2022-11-20T00:10:52;98798.02;;;-0.74;63.80
33286;BME280;19656;50.096;20.014;2022-11-20T00:16:00;98792.73;;;-0.62;63.55
33286;BME280;19656;50.096;20.014;2022-11-20T00:21:10;98787.78;;;-0.60;63.47
33286;BME280;19656;50.096;20.014;2022-11-20T00:26:15;98785.53;;;-0.60;63.34
33286;BME280;19656;50.096;20.014;2022-11-20T00:31:19;98784.77;;;-0.65;63.12
33286;BME280;19656;50.096;20.014;2022-11-20T00:36:25;98784.80;;;-0.75;62.97
33286;BME280;19656;50.096;20.014;2022-11-20T00:41:29;98792.06;;;-0.81;63.30
33286;BME280;19656;50.096;20.014;2022-11-20T00:46:32;98794.63;;;-0.87;63.12
33286;BME280;19656;50.096;20.014;2022-11-20T00:51:35;98787.34;;;-0.88;62.94
33286;BME280;19656;50.096;20.014;2022-11-20T00:56:38;98780.62;;;-0.92;62.85
33286;BME280;19656;50.096;20.014;2022-11-20T01:01:42;98773.53;;;-1.03;62.58
33286;BME280;19656;50.096;20.014;2022-11-20T01:06:46;98764.81;;;-1.11;62.66
33286;BME280;19656;50.096;20.014;2022-11-20T01:11:49;98770.92;;;-1.21;62.46
33286;BME280;19656;50.096;20.014;2022-11-20T01:16:52;98766.45;;;-1.24;62.65
33286;BME280;19656;50.096;20.014;2022-11-20T01:21:55;98767.79;;;-1.31;62.43
33286;BME280;19656;50.096;20.014;2022-11-20T01:26:58;98758.52;;;-1.37;62.76
33286;BME280;19656;50.096;20.014;2022-11-20T01:32:02;98748.95;;;-1.37;62.95
33286;BME280;19656;50.096;20.014;2022-11-20T01:37:05;98753.19;;;-1.41;62.97
33286;BME280;19656;50.096;20.014;2022-11-20T01:42:07;98754.01;;;-1.48;62.91
33286;BME280;19656;50.096;20.014;2022-11-20T01:47:39;98752.70;;;-1.52;63.08
33286;BME280;19656;50.096;20.014;2022-11-20T01:52:59;98757.74;;;-1.52;63.02
33286;BME280;19656;50.096;20.014;2022-11-20T01:58:05;98755.17;;;-1.45;63.22
33286;BME280;19656;50.096;20.014;2022-11-20T02:03:11;98756.08;;;-1.47;63.06
33286;BME280;19656;50.096;20.014;2022-11-20T02:08:17;98758.75;;;-1.50;63.00
33286;BME280;19656;50.096;20.014;2022-11-20T02:13:20;98756.92;;;-1.55;62.97
33286;BME280;19656;50.096;20.014;2022-11-20T02:18:43;98755.49;;;-1.62;62.67
33286;BME280;19656;50.096;20.014;2022-11-20T02:28:56;98768.68;;;-1.71;63.11
33286;BME280;19656;50.096;20.014;2022-11-20T02:34:00;98771.45;;;-1.70;63.22
33286;BME280;19656;50.096;20.014;2022-11-20T02:39:03;98772.61;;;-1.67;63.13
33286;BME280;19656;50.096;20.014;2022-11-20T02:44:06;98767.55;;;-1.65;62.97
33286;BME280;19656;50.096;20.014;2022-11-20T02:49:09;98767.27;;;-1.69;62.87
33286;BME280;19656;50.096;20.014;2022-11-20T02:54:12;98767.18;;;-1.75;63.16
33286;BME280;19656;50.096;20.014;2022-11-20T02:59:15;98765.29;;;-1.76;62.86
33286;BME280;19656;50.096;20.014;2022-11-20T03:04:19;98757.09;;;-1.74;62.96
33286;BME280;19656;50.096;20.014;2022-11-20T03:09:22;98756.05;;;-1.75;63.03
33286;BME280;19656;50.096;20.014;2022-11-20T03:14:25;98759.46;;;-1.80;63.31
33286;BME280;19656;50.096;20.014;2022-11-20T03:19:28;98754.50;;;-1.85;63.17
33286;BME280;19656;50.096;20.014;2022-11-20T03:24:31;98755.70;;;-1.86;63.16
33286;BME280;19656;50.096;20.014;2022-11-20T03:29:35;98752.55;;;-1.83;63.27
33286;BME280;19656;50.096;20.014;2022-11-20T03:34:38;98752.63;;;-1.87;63.01
33286;BME280;19656;50.096;20.014;2022-11-20T03:39:41;98750.06;;;-1.91;62.97
33286;BME280;19656;50.096;20.014;2022-11-20T03:44:44;98741.08;;;-1.94;62.95
33286;BME280;19656;50.096;20.014;2022-11-20T03:49:47;98737.23;;;-1.93;63.00
33286;BME280;19656;50.096;20.014;2022-11-20T03:54:50;98736.77;;;-1.96;62.83
33286;BME280;19656;50.096;20.014;2022-11-20T03:59:53;98734.30;;;-1.95;62.90
33286;BME280;19656;50.096;20.014;2022-11-20T04:04:56;98736.77;;;-1.96;62.62
33286;BME280;19656;50.096;20.014;2022-11-20T04:10:04;98736.53;;;-2.03;62.56
33286;BME280;19656;50.096;20.014;2022-11-20T04:15:08;98737.70;;;-2.10;62.35
33286;BME280;19656;50.096;20.014;2022-11-20T04:20:11;98735.30;;;-2.13;62.45
33286;BME280;19656;50.096;20.014;2022-11-20T04:25:14;98730.66;;;-2.17;62.52
33286;BME280;19656;50.096;20.014;2022-11-20T04:30:17;98725.21;;;-2.23;62.40
33286;BME280;19656;50.096;20.014;2022-11-20T04:35:20;98718.90;;;-2.31;62.52
33286;BME280;19656;50.096;20.014;2022-11-20T04:40:23;98723.33;;;-2.36;62.40
33286;BME280;19656;50.096;20.014;2022-11-20T04:45:26;98720.20;;;-2.36;62.88
33286;BME280;19656;50.096;20.014;2022-11-20T04:50:29;98719.59;;;-2.30;62.77
33286;BME280;19656;50.096;20.014;2022-11-20T04:55:32;98715.75;;;-2.29;62.68
33286;BME280;19656;50.096;20.014;2022-11-20T05:00:35;98713.20;;;-2.32;62.75
33286;BME280;19656;50.096;20.014;2022-11-20T05:05:38;98710.34;;;-2.28;62.49
33286;BME280;19656;50.096;20.014;2022-11-20T05:10:41;98711.80;;;-2.32;62.40
33286;BME280;19656;50.096;20.014;2022-11-20T05:15:44;98714.10;;;-2.34;62.31
33286;BME280;19656;50.096;20.014;2022-11-20T05:20:54;98711.89;;;-2.37;62.33
33286;BME280;19656;50.096;20.014;2022-11-20T05:25:58;98709.80;;;-2.37;62.36
33286;BME280;19656;50.096;20.014;2022-11-20T05:31:10;98709.02;;;-2.43;62.34
33286;BME280;19656;50.096;20.014;2022-11-20T05:36:14;98702.28;;;-2.46;62.47
33286;BME280;19656;50.096;20.014;2022-11-20T05:41:19;98700.95;;;-2.49;62.48
33286;BME280;19656;50.096;20.014;2022-11-20T05:46:22;98695.30;;;-2.54;62.33
33286;BME280;19656;50.096;20.014;2022-11-20T05:51:30;98694.23;;;-2.53;62.63
33286;BME280;19656;50.096;20.014;2022-11-20T05:56:33;98686.42;;;-2.53;62.67
33286;BME280;19656;50.096;20.014;2022-11-20T06:01:36;98689.00;;;-2.52;62.48
33286;BME280;19656;50.096;20.014;2022-11-20T06:06:39;98690.61;;;-2.55;62.64
33286;BME280;19656;50.096;20.014;2022-11-20T06:11:42;98686.84;;;-2.58;62.49
33286;BME280;19656;50.096;20.014;2022-11-20T06:16:45;98691.36;;;-2.59;62.57
33286;BME280;19656;50.096;20.014;2022-11-20T06:21:48;98687.55;;;-2.58;62.41
33286;BME280;19656;50.096;20.014;2022-11-20T06:26:52;98691.94;;;-2.62;62.25
33286;BME280;19656;50.096;20.014;2022-11-20T06:31:55;98689.38;;;-2.64;62.58
33286;BME280;19656;50.096;20.014;2022-11-20T06:36:58;98685.68;;;-2.62;62.95
33286;BME280;19656;50.096;20.014;2022-11-20T06:42:01;98685.79;;;-2.57;62.82
33286;BME280;19656;50.096;20.014;2022-11-20T06:47:04;98679.46;;;-2.52;62.69
33286;BME280;19656;50.096;20.014;2022-11-20T06:52:07;98673.86;;;-2.49;62.78
33286;BME280;19656;50.096;20.014;2022-11-20T06:57:10;98677.79;;;-2.45;62.85
33286;BME280;19656;50.096;20.014;2022-11-20T07:02:13;98669.94;;;-2.43;62.58
33286;BME280;19656;50.096;20.014;2022-11-20T07:07:16;98669.91;;;-2.41;62.81
33286;BME280;19656;50.096;20.014;2022-11-20T07:12:20;98674.38;;;-2.39;63.01
33286;BME280;19656;50.096;20.014;2022-11-20T07:17:23;98677.27;;;-2.34;63.31
33286;BME280;19656;50.096;20.014;2022-11-20T07:22:26;98682.81;;;-2.12;63.79
33286;BME280;19656;50.096;20.014;2022-11-20T07:27:29;98683.55;;;-1.94;63.27
33286;BME280;19656;50.096;20.014;2022-11-20T07:32:32;98685.79;;;-1.83;63.38
33286;BME280;19656;50.096;20.014;2022-11-20T07:37:36;98689.34;;;-1.78;63.56
33286;BME280;19656;50.096;20.014;2022-11-20T07:42:39;98699.71;;;-1.75;63.62
33286;BME280;19656;50.096;20.014;2022-11-20T07:47:42;98703.14;;;-1.63;63.91
33286;BME280;19656;50.096;20.014;2022-11-20T07:52:45;98699.67;;;-1.35;64.34
33286;BME280;19656;50.096;20.014;2022-11-20T07:57:54;98697.11;;;-1.03;64.43
33286;BME280;19656;50.096;20.014;2022-11-20T08:02:57;98704.95;;;-0.96;62.61
33286;BME280;19656;50.096;20.014;2022-11-20T08:08:00;98701.76;;;-0.93;62.61
33286;BME280;19656;50.096;20.014;2022-11-20T08:13:03;98704.08;;;-0.95;62.57
33286;BME280;19656;50.096;20.014;2022-11-20T08:18:25;98702.91;;;-0.99;62.89
33286;BME280;19656;50.096;20.014;2022-11-20T08:23:33;98701.14;;;-0.97;62.86
33286;BME280;19656;50.096;20.014;2022-11-20T08:28:36;98702.29;;;-0.93;63.54
33286;BME280;19656;50.096;20.014;2022-11-20T08:33:39;98695.02;;;-0.87;63.27
33286;BME280;19656;50.096;20.014;2022-11-20T08:38:47;98691.69;;;-0.86;63.48
33286;BME280;19656;50.096;20.014;2022-11-20T08:43:56;98686.22;;;-0.83;64.09
33286;BME280;19656;50.096;20.014;2022-11-20T08:48:59;98682.52;;;-0.81;64.16
33286;BME280;19656;50.096;20.014;2022-11-20T08:54:03;98680.18;;;-0.78;64.27
33286;BME280;19656;50.096;20.014;2022-11-20T08:59:07;98671.20;;;-0.73;64.44
33286;BME280;19656;50.096;20.014;2022-11-20T09:04:30;98663.61;;;-0.27;71.39
33286;BME280;19656;50.096;20.014;2022-11-20T09:09:33;98654.08;;;0.53;65.68
33286;BME280;19656;50.096;20.014;2022-11-20T09:14:36;98658.89;;;0.43;63.95
33286;BME280;19656;50.096;20.014;2022-11-20T09:19:39;98656.50;;;0.28;64.02
33286;BME280;19656;50.096;20.014;2022-11-20T09:24:43;98652.77;;;0.56;64.16
33286;BME280;19656;50.096;20.014;2022-11-20T09:29:46;98653.91;;;0.28;63.12
33286;BME280;19656;50.096;20.014;2022-11-20T09:34:49;98662.25;;;0.09;63.54
33286;BME280;19656;50.096;20.014;2022-11-20T09:39:51;98662.17;;;-0.02;63.99
33286;BME280;19656;50.096;20.014;2022-11-20T09:50:45;98661.63;;;-0.01;64.37
33286;BME280;19656;50.096;20.014;2022-11-20T09:55:52;98656.19;;;0.00;64.54
33286;BME280;19656;50.096;20.014;2022-11-20T10:01:01;98655.76;;;0.04;64.85
33286;BME280;19656;50.096;20.014;2022-11-20T10:06:12;98654.87;;;0.04;64.85
33286;BME280;19656;50.096;20.014;2022-11-20T10:17:01;98664.05;;;0.13;65.13
33286;BME280;19656;50.096;20.014;2022-11-20T10:28:09;98654.23;;;0.35;65.33
33286;BME280;19656;50.096;20.014;2022-11-20T10:33:21;98646.09;;;0.39;65.18
33286;BME280;19656;50.096;20.014;2022-11-20T10:38:41;98641.48;;;0.48;65.65
33286;BME280;19656;50.096;20.014;2022-11-20T10:43:46;98639.02;;;0.79;67.67
33286;BME280;19656;50.096;20.014;2022-11-20T10:48:51;98635.95;;;1.01;67.09
33286;BME280;19656;50.096;20.014;2022-11-20T11:09:40;98603.17;;;1.44;63.83
33286;BME280;19656;50.096;20.014;2022-11-20T11:14:51;98591.04;;;1.51;63.80
33286;BME280;19656;50.096;20.014;2022-11-20T11:25:31;98573.23;;;1.71;65.08
33286;BME280;19656;50.096;20.014;2022-11-20T11:30:45;98568.55;;;1.91;63.95
33286;BME280;19656;50.096;20.014;2022-11-20T11:36:00;98566.80;;;1.86;62.95
33286;BME280;19656;50.096;20.014;2022-11-20T11:41:06;98568.92;;;1.85;62.95
33286;BME280;19656;50.096;20.014;2022-11-20T11:46:33;98569.16;;;1.83;62.88
33286;BME280;19656;50.096;20.014;2022-11-20T11:56:53;98545.05;;;1.82;62.58
33286;BME280;19656;50.096;20.014;2022-11-20T12:02:00;98538.20;;;1.83;62.60
33286;BME280;19656;50.096;20.014;2022-11-20T12:07:15;98533.63;;;1.84;62.34
33286;BME280;19656;50.096;20.014;2022-11-20T12:12:45;98530.75;;;1.86;62.51
33286;BME280;19656;50.096;20.014;2022-11-20T12:17:50;98530.89;;;1.92;63.45
33286;BME280;19656;50.096;20.014;2022-11-20T12:23:19;98531.05;;;2.02;62.80
33286;BME280;19656;50.096;20.014;2022-11-20T12:39:33;98537.31;;;2.08;62.51
33286;BME280;19656;50.096;20.014;2022-11-20T13:01:40;98513.36;;;2.27;63.50
33286;BME280;19656;50.096;20.014;2022-11-20T13:06:50;98512.48;;;2.27;64.69
33286;BME280;19656;50.096;20.014;2022-11-20T13:12:07;98503.44;;;2.58;67.10
33286;BME280;19656;50.096;20.014;2022-11-20T13:17:20;98491.41;;;2.56;64.01
33286;BME280;19656;50.096;20.014;2022-11-20T13:22:42;98485.52;;;2.59;63.91
33286;BME280;19656;50.096;20.014;2022-11-20T13:27:48;98484.55;;;2.62;63.64
33286;BME280;19656;50.096;20.014;2022-11-20T13:33:06;98486.57;;;2.59;63.41
33286;BME280;19656;50.096;20.014;2022-11-20T13:38:11;98472.37;;;2.55;63.21
33286;BME280;19656;50.096;20.014;2022-11-20T13:43:35;98453.61;;;2.56;63.52
33286;BME280;19656;50.096;20.014;2022-11-20T13:48:42;98451.70;;;2.55;63.49
33286;BME280;19656;50.096;20.014;2022-11-20T13:53:53;98452.93;;;2.55;64.04
33286;BME280;19656;50.096;20.014;2022-11-20T13:59:23;98451.45;;;2.71;64.25
33286;BME280;19656;50.096;20.014;2022-11-20T14:04:36;98454.27;;;2.61;63.00
33286;BME280;19656;50.096;20.014;2022-11-20T14:09:58;98459.06;;;2.51;62.68
33286;BME280;19656;50.096;20.014;2022-11-20T14:15:01;98462.13;;;2.44;62.72
33286;BME280;19656;50.096;20.014;2022-11-20T14:20:11;98462.31;;;2.34;62.66
33286;BME280;19656;50.096;20.014;2022-11-20T14:30:24;98451.20;;;2.23;62.81
33286;BME280;19656;50.096;20.014;2022-11-20T14:35:29;98440.48;;;2.20;63.21
33286;BME280;19656;50.096;20.014;2022-11-20T14:40:34;98436.26;;;2.16;63.26
33286;BME280;19656;50.096;20.014;2022-11-20T14:45:38;98443.45;;;2.06;63.82
33286;BME280;19656;50.096;20.014;2022-11-20T14:50:42;98438.86;;;2.07;64.80
33286;BME280;19656;50.096;20.014;2022-11-20T14:55:55;98435.16;;;2.03;64.20
33286;BME280;19656;50.096;20.014;2022-11-20T15:01:02;98433.42;;;1.93;64.52
33286;BME280;19656;50.096;20.014;2022-11-20T15:06:09;98430.44;;;1.84;64.80
33286;BME280;19656;50.096;20.014;2022-11-20T15:11:23;98425.16;;;1.85;64.99
33286;BME280;19656;50.096;20.014;2022-11-20T15:16:28;98425.55;;;1.84;66.30
33286;BME280;19656;50.096;20.014;2022-11-20T15:21:31;98423.27;;;1.93;66.45
33286;BME280;19656;50.096;20.014;2022-11-20T15:26:35;98428.38;;;1.87;65.54
33286;BME280;19656;50.096;20.014;2022-11-20T15:31:39;98427.98;;;1.98;65.63
33286;BME280;19656;50.096;20.014;2022-11-20T15:36:44;98430.09;;;2.12;65.37
33286;BME280;19656;50.096;20.014;2022-11-20T15:41:47;98421.97;;;2.14;65.12
33286;BME280;19656;50.096;20.014;2022-11-20T15:46:50;98415.14;;;2.05;65.11
33286;BME280;19656;50.096;20.014;2022-11-20T15:51:53;98406.89;;;1.97;65.11
33286;BME280;19656;50.096;20.014;2022-11-20T15:56:56;98408.79;;;1.87;65.37
33286;BME280;19656;50.096;20.014;2022-11-20T16:01:59;98407.28;;;1.81;65.44
33286;BME280;19656;50.096;20.014;2022-11-20T16:07:02;98403.39;;;1.73;65.57
33286;BME280;19656;50.096;20.014;2022-11-20T16:12:08;98401.05;;;1.65;65.55
33286;BME280;19656;50.096;20.014;2022-11-20T16:17:32;98398.89;;;1.57;65.78
33286;BME280;19656;50.096;20.014;2022-11-20T16:22:45;98393.88;;;1.56;65.70
33286;BME280;19656;50.096;20.014;2022-11-20T16:27:48;98397.66;;;1.53;65.81
33286;BME280;19656;50.096;20.014;2022-11-20T16:32:51;98399.43;;;1.62;68.37
33286;BME280;19656;50.096;20.014;2022-11-20T16:37:55;98404.60;;;1.83;67.36
33286;BME280;19656;50.096;20.014;2022-11-20T16:43:09;98405.92;;;1.80;65.96
33286;BME280;19656;50.096;20.014;2022-11-20T16:48:15;98405.89;;;1.81;65.96
33286;BME280;19656;50.096;20.014;2022-11-20T16:53:20;98409.84;;;1.83;66.06
33286;BME280;19656;50.096;20.014;2022-11-20T16:58:24;98407.71;;;1.83;65.94
33286;BME280;19656;50.096;20.014;2022-11-20T17:03:27;98401.20;;;1.80;66.10
33286;BME280;19656;50.096;20.014;2022-11-20T17:08:29;98400.39;;;1.78;66.05
33286;BME280;19656;50.096;20.014;2022-11-20T17:13:33;98394.33;;;1.77;66.34
33286;BME280;19656;50.096;20.014;2022-11-20T17:18:41;98395.10;;;1.75;66.40
33286;BME280;19656;50.096;20.014;2022-11-20T17:23:46;98398.38;;;1.72;66.42
33286;BME280;19656;50.096;20.014;2022-11-20T17:29:00;98390.52;;;1.66;66.64
33286;BME280;19656;50.096;20.014;2022-11-20T17:34:08;98386.67;;;1.71;67.15
33286;BME280;19656;50.096;20.014;2022-11-20T17:39:13;98382.04;;;1.87;68.83
33286;BME280;19656;50.096;20.014;2022-11-20T17:44:17;98374.39;;;1.91;67.20
33286;BME280;19656;50.096;20.014;2022-11-20T17:49:20;98362.45;;;1.87;67.03
33286;BME280;19656;50.096;20.014;2022-11-20T17:54:25;98354.09;;;1.86;66.58
33286;BME280;19656;50.096;20.014;2022-11-20T17:59:28;98351.89;;;1.84;66.64
33286;BME280;19656;50.096;20.014;2022-11-20T18:04:31;98357.45;;;1.81;66.58
33286;BME280;19656;50.096;20.014;2022-11-20T18:09:34;98358.14;;;1.77;66.68
33286;BME280;19656;50.096;20.014;2022-11-20T18:14:37;98360.30;;;1.75;67.05
33286;BME280;19656;50.096;20.014;2022-11-20T18:19:43;98365.73;;;1.71;66.89
33286;BME280;19656;50.096;20.014;2022-11-20T18:25:07;98360.58;;;1.68;67.29
33286;BME280;19656;50.096;20.014;2022-11-20T18:30:11;98362.52;;;1.67;67.29
33286;BME280;19656;50.096;20.014;2022-11-20T18:35:14;98352.33;;;1.68;67.31
33286;BME280;19656;50.096;20.014;2022-11-20T18:40:17;98340.45;;;1.63;67.22
33286;BME280;19656;50.096;20.014;2022-11-20T18:45:20;98327.70;;;1.62;67.30
33286;BME280;19656;50.096;20.014;2022-11-20T18:50:23;98329.13;;;1.58;67.36
33286;BME280;19656;50.096;20.014;2022-11-20T18:55:26;98333.60;;;1.59;68.34
33286;BME280;19656;50.096;20.014;2022-11-20T19:00:29;98332.04;;;1.73;68.64
33286;BME280;19656;50.096;20.014;2022-11-20T19:05:35;98323.07;;;1.70;67.31
33286;BME280;19656;50.096;20.014;2022-11-20T19:10:38;98324.45;;;1.71;67.11
33286;BME280;19656;50.096;20.014;2022-11-20T19:15:41;98328.69;;;1.69;67.01
33286;BME280;19656;50.096;20.014;2022-11-20T19:20:44;98324.39;;;1.62;66.80
33286;BME280;19656;50.096;20.014;2022-11-20T19:25:47;98312.69;;;1.53;66.60
33286;BME280;19656;50.096;20.014;2022-11-20T19:30:51;98312.00;;;1.48;66.78
33286;BME280;19656;50.096;20.014;2022-11-20T19:35:54;98311.99;;;1.43;66.69
33286;BME280;19656;50.096;20.014;2022-11-20T19:40:56;98311.98;;;1.39;66.80
33286;BME280;19656;50.096;20.014;2022-11-20T19:46:00;98314.96;;;1.34;66.96
33286;BME280;19656;50.096;20.014;2022-11-20T19:51:19;98312.08;;;1.27;67.37
33286;BME280;19656;50.096;20.014;2022-11-20T19:56:23;98316.70;;;1.15;67.30
33286;BME280;19656;50.096;20.014;2022-11-20T20:01:28;98318.64;;;1.10;67.69
33286;BME280;19656;50.096;20.014;2022-11-20T20:06:34;98322.14;;;1.14;68.67
33286;BME280;19656;50.096;20.014;2022-11-20T20:11:38;98330.67;;;1.30;70.58
33286;BME280;19656;50.096;20.014;2022-11-20T20:16:41;98329.02;;;1.32;68.20
33286;BME280;19656;50.096;20.014;2022-11-20T20:21:44;98325.88;;;1.32;68.13
33286;BME280;19656;50.096;20.014;2022-11-20T20:26:49;98332.41;;;1.40;68.50
33286;BME280;19656;50.096;20.014;2022-11-20T20:31:58;98339.88;;;1.41;67.84
33286;BME280;19656;50.096;20.014;2022-11-20T20:37:01;98340.92;;;1.31;67.97
33286;BME280;19656;50.096;20.014;2022-11-20T20:42:06;98333.87;;;1.24;68.04
33286;BME280;19656;50.096;20.014;2022-11-20T20:47:09;98338.51;;;1.15;68.06
33286;BME280;19656;50.096;20.014;2022-11-20T20:52:12;98343.52;;;1.03;68.29
33286;BME280;19656;50.096;20.014;2022-11-20T20:57:16;98344.91;;;0.92;68.75
33286;BME280;19656;50.096;20.014;2022-11-20T21:02:20;98340.44;;;0.96;69.05
33286;BME280;19656;50.096;20.014;2022-11-20T21:07:24;98335.56;;;0.95;69.00
33286;BME280;19656;50.096;20.014;2022-11-20T21:12:28;98329.67;;;0.94;69.24
33286;BME280;19656;50.096;20.014;2022-11-20T21:17:31;98328.63;;;0.94;69.35
33286;BME280;19656;50.096;20.014;2022-11-20T21:22:34;98321.55;;;0.96;69.47
33286;BME280;19656;50.096;20.014;2022-11-20T21:27:38;98330.35;;;1.05;69.50
33286;BME280;19656;50.096;20.014;2022-11-20T21:32:43;98341.77;;;1.18;69.28
33286;BME280;19656;50.096;20.014;2022-11-20T21:37:46;98342.55;;;1.29;69.08
33286;BME280;19656;50.096;20.014;2022-11-20T21:42:52;98341.88;;;1.38;68.91
33286;BME280;19656;50.096;20.014;2022-11-20T21:47:54;98334.24;;;1.37;68.65
33286;BME280;19656;50.096;20.014;2022-11-20T21:52:57;98319.64;;;1.35;68.76
33286;BME280;19656;50.096;20.014;2022-11-20T21:58:01;98319.45;;;1.35;68.84
33286;BME280;19656;50.096;20.014;2022-11-20T22:03:04;98323.77;;;1.37;68.99
33286;BME280;19656;50.096;20.014;2022-11-20T22:08:07;98328.33;;;1.41;68.97
33286;BME280;19656;50.096;20.014;2022-11-20T22:13:10;98332.19;;;1.41;68.73
33286;BME280;19656;50.096;20.014;2022-11-20T22:18:32;98326.33;;;1.38;69.08
33286;BME280;19656;50.096;20.014;2022-11-20T22:23:35;98331.02;;;1.39;69.10
33286;BME280;19656;50.096;20.014;2022-11-20T22:28:38;98341.54;;;1.43;69.13
33286;BME280;19656;50.096;20.014;2022-11-20T22:33:42;98339.08;;;1.44;69.11
33286;BME280;19656;50.096;20.014;2022-11-20T22:38:46;98338.10;;;1.51;69.01
33286;BME280;19656;50.096;20.014;2022-11-20T22:43:56;98344.04;;;1.65;69.18
33286;BME280;19656;50.096;20.014;2022-11-20T22:49:01;98352.05;;;1.76;68.78
33286;BME280;19656;50.096;20.014;2022-11-20T22:54:05;98351.02;;;1.80;68.75
33286;BME280;19656;50.096;20.014;2022-11-20T22:59:08;98352.09;;;1.83;68.52
33286;BME280;19656;50.096;20.014;2022-11-20T23:04:11;98341.08;;;1.84;68.61
33286;BME280;19656;50.096;20.014;2022-11-20T23:09:14;98341.04;;;1.85;68.71
33286;BME280;19656;50.096;20.014;2022-11-20T23:14:19;98345.30;;;1.87;68.64
33286;BME280;19656;50.096;20.014;2022-11-20T23:19:29;98345.59;;;1.89;68.93
33286;BME280;19656;50.096;20.014;2022-11-20T23:24:32;98330.88;;;1.94;69.09
33286;BME280;19656;50.096;20.014;2022-11-20T23:29:35;98321.96;;;1.94;68.96
33286;BME280;19656;50.096;20.014;2022-11-20T23:34:38;98324.69;;;1.96;69.13
33286;BME280;19656;50.096;20.014;2022-11-20T23:39:41;98319.11;;;2.00;69.26
33286;BME280;19656;50.096;20.014;2022-11-20T23:44:44;98305.64;;;2.00;68.82
33286;BME280;19656;50.096;20.014;2022-11-20T23:49:47;98301.35;;;2.07;68.74
33286;BME280;19656;50.096;20.014;2022-11-20T23:54:50;98314.36;;;2.14;68.54
33286;BME280;19656;50.096;20.014;2022-11-20T23:59:53;98310.36;;;2.22;68.46
